createdAt,value
2023-01-29T00:00:06.677Z,1027.18
2023-01-29T00:01:06.709Z,1027.21
2023-01-29T00:02:06.758Z,1027.13
2023-01-29T00:03:06.739Z,1027.13
2023-01-29T00:04:06.754Z,1027.13
2023-01-29T00:05:24.630Z,1027.04
2023-01-29T00:06:06.673Z,1027.08
2023-01-29T00:07:06.685Z,1027.15
2023-01-29T00:08:06.595Z,1027.15
2023-01-29T00:09:06.716Z,1027.16
2023-01-29T00:10:06.595Z,1027.15
2023-01-29T00:11:07.387Z,1027.15
2023-01-29T00:12:06.599Z,1027.14
2023-01-29T00:13:06.591Z,1027.08
2023-01-29T00:14:06.522Z,1027.06
2023-01-29T00:15:08.379Z,1027.02
2023-01-29T00:16:06.502Z,1027.02
2023-01-29T00:17:06.584Z,1027.05
2023-01-29T00:18:06.497Z,1027.00
2023-01-29T00:19:06.474Z,1027.05
2023-01-29T00:20:06.461Z,1027.10
2023-01-29T00:21:06.712Z,1027.08
2023-01-29T00:22:06.475Z,1027.04
2023-01-29T00:23:06.488Z,1027.01
2023-01-29T00:24:06.496Z,1027.06
2023-01-29T00:25:06.444Z,1027.00
2023-01-29T00:26:06.388Z,1027.02
2023-01-29T00:27:06.416Z,1027.01
2023-01-29T00:28:06.375Z,1026.99
2023-01-29T00:29:06.566Z,1026.95
2023-01-29T00:30:06.348Z,1027.00
2023-01-29T00:31:06.450Z,1027.02
2023-01-29T00:32:06.445Z,1026.96
2023-01-29T00:33:06.339Z,1026.95
2023-01-29T00:34:06.330Z,1026.97
2023-01-29T00:35:06.321Z,1026.96
2023-01-29T00:36:06.292Z,1027.06
2023-01-29T00:37:06.295Z,1027.02
2023-01-29T00:38:06.241Z,1027.08
2023-01-29T00:39:06.292Z,1027.09
2023-01-29T00:40:06.247Z,1027.10
2023-01-29T00:41:06.370Z,1027.03
2023-01-29T00:42:08.828Z,1027.04
2023-01-29T00:43:06.259Z,1026.99
2023-01-29T00:44:06.187Z,1027.02
2023-01-29T00:45:06.853Z,1026.98
2023-01-29T00:46:06.154Z,1026.97
2023-01-29T00:47:08.525Z,1026.91
2023-01-29T00:48:06.125Z,1026.88
2023-01-29T00:49:06.176Z,1026.91
2023-01-29T00:50:06.896Z,1026.91
2023-01-29T00:51:06.121Z,1026.93
2023-01-29T00:52:06.108Z,1026.91
2023-01-29T00:53:06.196Z,1027.00
2023-01-29T00:54:06.082Z,1026.95
2023-01-29T00:55:06.079Z,1026.90
2023-01-29T00:56:06.041Z,1026.91
2023-01-29T00:57:06.083Z,1026.96
2023-01-29T00:58:06.079Z,1026.97
2023-01-29T00:59:06.069Z,1026.96
2023-01-29T01:00:06.038Z,1027.05
2023-01-29T01:01:06.095Z,1026.99
2023-01-29T01:02:06.022Z,1026.99
2023-01-29T01:03:06.103Z,1026.95
2023-01-29T01:04:05.965Z,1026.98
2023-01-29T01:05:05.962Z,1026.96
2023-01-29T01:06:05.936Z,1026.93
2023-01-29T01:07:05.959Z,1026.99
2023-01-29T01:08:05.903Z,1026.99
2023-01-29T01:09:05.987Z,1027.02
2023-01-29T01:10:05.925Z,1027.00
2023-01-29T01:11:05.916Z,1027.03
2023-01-29T01:12:05.892Z,1027.01
2023-01-29T01:13:05.881Z,1026.93
2023-01-29T01:14:05.879Z,1026.92
2023-01-29T01:15:05.861Z,1026.96
2023-01-29T01:16:05.881Z,1026.95
2023-01-29T01:17:05.841Z,1026.92
2023-01-29T01:18:05.818Z,1026.96
2023-01-29T01:19:13.023Z,1026.96
2023-01-29T01:20:05.804Z,1026.95
2023-01-29T01:21:05.770Z,1026.94
2023-01-29T01:22:05.809Z,1026.94
2023-01-29T01:23:05.763Z,1026.92
2023-01-29T01:24:05.772Z,1026.95
2023-01-29T01:25:05.809Z,1027.06
2023-01-29T01:26:05.722Z,1026.98
2023-01-29T01:27:05.739Z,1027.05
2023-01-29T01:28:05.701Z,1026.98
2023-01-29T01:29:07.091Z,1027.02
2023-01-29T01:30:05.707Z,1027.03
2023-01-29T01:31:05.934Z,1027.09
2023-01-29T01:32:05.729Z,1027.08
2023-01-29T01:33:05.704Z,1027.10
2023-01-29T01:34:05.649Z,1027.13
2023-01-29T01:35:05.688Z,1027.10
2023-01-29T01:36:05.673Z,1027.14
2023-01-29T01:37:05.623Z,1027.03
2023-01-29T01:38:05.587Z,1026.98
2023-01-29T01:39:05.590Z,1027.00
2023-01-29T01:40:05.634Z,1026.95
2023-01-29T01:41:05.675Z,1027.01
2023-01-29T01:42:05.555Z,1027.00
2023-01-29T01:43:05.620Z,1026.97
2023-01-29T01:44:05.695Z,1026.96
2023-01-29T01:45:05.556Z,1026.90
2023-01-29T01:46:05.583Z,1026.97
2023-01-29T01:47:05.576Z,1026.95
2023-01-29T01:48:05.668Z,1027.01
2023-01-29T01:49:05.493Z,1026.97
2023-01-29T01:50:05.487Z,1026.93
2023-01-29T01:51:05.487Z,1026.88
2023-01-29T01:52:05.506Z,1026.95
2023-01-29T01:53:05.455Z,1026.88
2023-01-29T01:54:05.398Z,1026.80
2023-01-29T01:55:05.564Z,1026.82
2023-01-29T01:56:05.402Z,1026.79
2023-01-29T01:57:05.375Z,1026.78
2023-01-29T01:58:07.372Z,1026.94
2023-01-29T01:59:05.366Z,1026.95
2023-01-29T02:00:05.514Z,1026.94
2023-01-29T02:01:05.431Z,1026.95
2023-01-29T02:02:05.326Z,1026.97
2023-01-29T02:03:05.361Z,1026.92
2023-01-29T02:04:05.305Z,1026.89
2023-01-29T02:05:05.581Z,1026.93
2023-01-29T02:06:05.523Z,1026.98
2023-01-29T02:07:05.268Z,1026.95
2023-01-29T02:08:05.257Z,1026.93
2023-01-29T02:09:05.254Z,1026.99
2023-01-29T02:10:05.371Z,1026.95
2023-01-29T02:11:05.312Z,1027.00
2023-01-29T02:12:05.258Z,1027.05
2023-01-29T02:13:05.223Z,1027.01
2023-01-29T02:14:05.183Z,1026.99
2023-01-29T02:15:05.181Z,1026.94
2023-01-29T02:16:06.315Z,1026.95
2023-01-29T02:17:05.267Z,1026.99
2023-01-29T02:18:05.939Z,1026.98
2023-01-29T02:19:05.145Z,1026.97
2023-01-29T02:20:05.167Z,1026.94
2023-01-29T02:21:05.270Z,1026.87
2023-01-29T02:22:05.197Z,1026.79
2023-01-29T02:23:05.083Z,1026.75
2023-01-29T02:24:05.205Z,1026.75
2023-01-29T02:25:05.142Z,1026.72
2023-01-29T02:26:05.090Z,1026.60
2023-01-29T02:27:05.102Z,1026.58
2023-01-29T02:28:05.086Z,1026.50
2023-01-29T02:29:05.027Z,1026.53
2023-01-29T02:30:05.074Z,1026.43
2023-01-29T02:31:05.006Z,1026.48
2023-01-29T02:32:05.056Z,1026.47
2023-01-29T02:33:04.953Z,1026.41
2023-01-29T02:34:04.996Z,1026.36
2023-01-29T02:35:04.944Z,1026.32
2023-01-29T02:36:05.051Z,1026.27
2023-01-29T02:37:04.960Z,1026.28
2023-01-29T02:38:04.950Z,1026.24
2023-01-29T02:39:04.892Z,1026.24
2023-01-29T02:40:04.895Z,1026.18
2023-01-29T02:41:04.890Z,1026.18
2023-01-29T02:42:04.889Z,1026.12
2023-01-29T02:43:04.957Z,1026.09
2023-01-29T02:44:04.891Z,1026.00
2023-01-29T02:45:04.879Z,1026.02
2023-01-29T02:46:04.954Z,1025.96
2023-01-29T02:47:04.803Z,1025.91
2023-01-29T02:48:04.893Z,1025.92
2023-01-29T02:49:04.811Z,1025.87
2023-01-29T02:50:04.792Z,1025.85
2023-01-29T02:51:04.939Z,1025.91
2023-01-29T02:52:04.790Z,1025.91
2023-01-29T02:53:04.814Z,1025.86
2023-01-29T02:54:04.778Z,1025.84
2023-01-29T02:55:04.795Z,1025.89
2023-01-29T02:56:04.770Z,1025.82
2023-01-29T02:57:04.705Z,1025.81
2023-01-29T02:58:04.710Z,1025.82
2023-01-29T02:59:04.716Z,1025.87
2023-01-29T03:00:04.730Z,1025.82
2023-01-29T03:01:04.723Z,1025.91
2023-01-29T03:02:05.003Z,1025.78
2023-01-29T03:03:04.755Z,1025.84
2023-01-29T03:04:04.635Z,1025.80
2023-01-29T03:05:04.712Z,1025.83
2023-01-29T03:06:04.636Z,1025.81
2023-01-29T03:07:04.592Z,1025.88
2023-01-29T03:08:04.651Z,1025.82
2023-01-29T03:09:04.607Z,1025.73
2023-01-29T03:10:04.561Z,1025.75
2023-01-29T03:11:04.551Z,1025.71
2023-01-29T03:12:04.519Z,1025.67
2023-01-29T03:13:04.555Z,1025.65
2023-01-29T03:14:04.550Z,1025.69
2023-01-29T03:15:05.368Z,1025.72
2023-01-29T03:16:04.539Z,1025.69
2023-01-29T03:17:04.540Z,1025.72
2023-01-29T03:18:04.569Z,1025.70
2023-01-29T03:19:04.455Z,1025.69
2023-01-29T03:20:04.462Z,1025.69
2023-01-29T03:21:04.469Z,1025.68
2023-01-29T03:22:04.935Z,1025.71
2023-01-29T03:23:04.545Z,1025.76
2023-01-29T03:24:04.438Z,1025.82
2023-01-29T03:25:04.523Z,1025.86
2023-01-29T03:26:05.225Z,1025.84
2023-01-29T03:27:04.372Z,1025.89
2023-01-29T03:28:04.423Z,1025.86
2023-01-29T03:29:04.333Z,1025.80
2023-01-29T03:30:04.463Z,1025.83
2023-01-29T03:31:04.427Z,1025.82
2023-01-29T03:32:04.367Z,1025.88
2023-01-29T03:33:04.460Z,1025.89
2023-01-29T03:34:04.325Z,1025.90
2023-01-29T03:35:04.318Z,1025.93
2023-01-29T03:36:04.319Z,1025.90
2023-01-29T03:37:04.497Z,1026.00
2023-01-29T03:38:04.340Z,1025.92
2023-01-29T03:39:04.254Z,1025.95
2023-01-29T03:40:04.295Z,1025.97
2023-01-29T03:41:04.247Z,1025.90
2023-01-29T03:42:04.246Z,1025.87
2023-01-29T03:43:04.167Z,1025.86
2023-01-29T03:44:04.168Z,1025.93
2023-01-29T03:45:04.155Z,1025.91
2023-01-29T03:46:04.197Z,1025.95
2023-01-29T03:47:04.117Z,1025.91
2023-01-29T03:48:04.286Z,1025.90
2023-01-29T03:49:04.105Z,1025.91
2023-01-29T03:50:04.112Z,1025.90
2023-01-29T03:51:04.090Z,1025.91
2023-01-29T03:52:04.106Z,1025.93
2023-01-29T03:53:04.101Z,1025.94
2023-01-29T03:54:04.065Z,1025.95
2023-01-29T03:55:04.035Z,1025.88
2023-01-29T03:56:04.043Z,1025.95
2023-01-29T03:57:04.066Z,1025.96
2023-01-29T03:58:04.119Z,1025.94
2023-01-29T03:59:04.028Z,1025.90
2023-01-29T04:00:03.988Z,1025.91
2023-01-29T04:01:03.975Z,1025.88
2023-01-29T04:02:03.966Z,1025.90
2023-01-29T04:03:03.986Z,1025.86
2023-01-29T04:04:04.062Z,1025.88
2023-01-29T04:05:03.931Z,1025.87
2023-01-29T04:06:03.917Z,1025.84
2023-01-29T04:07:03.900Z,1025.87
2023-01-29T04:08:03.946Z,1025.88
2023-01-29T04:09:03.875Z,1025.78
2023-01-29T04:10:03.883Z,1025.86
2023-01-29T04:11:03.876Z,1025.84
2023-01-29T04:12:03.875Z,1025.89
2023-01-29T04:13:03.877Z,1025.91
2023-01-29T04:14:03.891Z,1025.84
2023-01-29T04:15:03.810Z,1025.92
2023-01-29T04:16:03.878Z,1025.89
2023-01-29T04:17:03.782Z,1025.89
2023-01-29T04:18:03.806Z,1025.87
2023-01-29T04:19:03.799Z,1025.90
2023-01-29T04:20:03.787Z,1025.96
2023-01-29T04:21:03.753Z,1026.04
2023-01-29T04:22:03.774Z,1026.06
2023-01-29T04:23:03.712Z,1025.96
2023-01-29T04:24:03.772Z,1025.95
2023-01-29T04:25:03.718Z,1025.95
2023-01-29T04:26:03.714Z,1025.89
2023-01-29T04:27:03.712Z,1025.92
2023-01-29T04:28:03.676Z,1025.88
2023-01-29T04:29:03.682Z,1025.87
2023-01-29T04:30:03.661Z,1025.93
2023-01-29T04:31:03.768Z,1025.79
2023-01-29T04:32:03.712Z,1025.81
2023-01-29T04:33:03.613Z,1025.85
2023-01-29T04:34:03.690Z,1025.78
2023-01-29T04:35:03.588Z,1025.70
2023-01-29T04:36:03.634Z,1025.69
2023-01-29T04:37:03.619Z,1025.61
2023-01-29T04:38:03.613Z,1025.60
2023-01-29T04:39:03.594Z,1025.56
2023-01-29T04:40:03.538Z,1025.54
2023-01-29T04:41:03.590Z,1025.50
2023-01-29T04:42:03.661Z,1025.46
2023-01-29T04:43:03.546Z,1025.43
2023-01-29T04:44:03.495Z,1025.47
2023-01-29T04:45:03.474Z,1025.44
2023-01-29T04:46:03.471Z,1025.48
2023-01-29T04:47:03.500Z,1025.45
2023-01-29T04:48:10.384Z,1025.51
2023-01-29T04:49:03.421Z,1025.37
2023-01-29T04:50:03.431Z,1025.38
2023-01-29T04:51:03.396Z,1025.30
2023-01-29T04:52:03.461Z,1025.36
2023-01-29T04:53:03.381Z,1025.37
2023-01-29T04:54:03.407Z,1025.40
2023-01-29T04:55:03.352Z,1025.36
2023-01-29T04:56:03.373Z,1025.29
2023-01-29T04:57:03.334Z,1025.28
2023-01-29T04:58:03.438Z,1025.22
2023-01-29T04:59:03.357Z,1025.24
2023-01-29T05:00:03.304Z,1025.16
2023-01-29T05:01:03.284Z,1025.23
2023-01-29T05:02:03.329Z,1025.22
2023-01-29T05:03:03.317Z,1025.22
2023-01-29T05:04:03.327Z,1025.17
2023-01-29T05:05:03.233Z,1025.12
2023-01-29T05:06:03.242Z,1025.14
2023-01-29T05:07:03.234Z,1025.08
2023-01-29T05:08:03.230Z,1025.06
2023-01-29T05:09:03.224Z,1025.10
2023-01-29T05:10:03.207Z,1025.05
2023-01-29T05:11:03.168Z,1025.01
2023-01-29T05:12:03.173Z,1025.01
2023-01-29T05:13:03.173Z,1025.13
2023-01-29T05:14:03.205Z,1025.21
2023-01-29T05:15:03.126Z,1025.16
2023-01-29T05:16:03.167Z,1025.15
2023-01-29T05:17:03.126Z,1025.16
2023-01-29T05:18:03.267Z,1025.23
2023-01-29T05:19:03.164Z,1025.18
2023-01-29T05:20:03.129Z,1025.14
2023-01-29T05:21:03.077Z,1025.10
2023-01-29T05:22:03.113Z,1025.17
2023-01-29T05:23:03.048Z,1025.09
2023-01-29T05:24:03.072Z,1025.16
2023-01-29T05:25:03.077Z,1025.14
2023-01-29T05:26:03.028Z,1024.99
2023-01-29T05:27:03.006Z,1024.94
2023-01-29T05:28:03.019Z,1025.03
2023-01-29T05:29:02.977Z,1024.99
2023-01-29T05:30:03.447Z,1025.00
2023-01-29T05:31:03.060Z,1024.99
2023-01-29T05:32:02.958Z,1025.02
2023-01-29T05:33:02.919Z,1024.98
2023-01-29T05:34:02.933Z,1024.92
2023-01-29T05:35:02.953Z,1024.93
2023-01-29T05:36:02.948Z,1024.85
2023-01-29T05:37:02.896Z,1024.74
2023-01-29T05:38:02.890Z,1024.74
2023-01-29T05:39:02.873Z,1024.62
2023-01-29T05:40:02.913Z,1024.65
2023-01-29T05:41:02.844Z,1024.63
2023-01-29T05:42:02.856Z,1024.65
2023-01-29T05:43:02.938Z,1024.61
2023-01-29T05:44:02.828Z,1024.60
2023-01-29T05:45:02.932Z,1024.57
2023-01-29T05:46:02.803Z,1024.57
2023-01-29T05:47:02.786Z,1024.59
2023-01-29T05:48:02.815Z,1024.62
2023-01-29T05:49:02.763Z,1024.47
2023-01-29T05:50:02.759Z,1024.52
2023-01-29T05:51:02.765Z,1024.53
2023-01-29T05:52:02.792Z,1024.51
2023-01-29T05:53:02.718Z,1024.48
2023-01-29T05:54:02.713Z,1024.41
2023-01-29T05:55:02.678Z,1024.38
2023-01-29T05:56:02.763Z,1024.45
2023-01-29T05:57:02.700Z,1024.39
2023-01-29T05:58:05.567Z,1024.35
2023-01-29T05:59:02.630Z,1024.39
2023-01-29T06:00:02.698Z,1024.39
2023-01-29T06:01:02.624Z,1024.43
2023-01-29T06:02:02.681Z,1024.48
2023-01-29T06:03:02.728Z,1024.52
2023-01-29T06:04:02.606Z,1024.52
2023-01-29T06:05:02.649Z,1024.54
2023-01-29T06:06:02.595Z,1024.60
2023-01-29T06:07:02.545Z,1024.60
2023-01-29T06:08:02.605Z,1024.61
2023-01-29T06:09:02.559Z,1024.53
2023-01-29T06:10:02.541Z,1024.54
2023-01-29T06:11:02.535Z,1024.59
2023-01-29T06:12:02.557Z,1024.64
2023-01-29T06:13:02.474Z,1024.50
2023-01-29T06:14:02.484Z,1024.59
2023-01-29T06:15:02.506Z,1024.63
2023-01-29T06:16:02.467Z,1024.58
2023-01-29T06:17:02.473Z,1024.62
2023-01-29T06:18:02.448Z,1024.52
2023-01-29T06:19:02.415Z,1024.42
2023-01-29T06:20:02.458Z,1024.44
2023-01-29T06:21:02.450Z,1024.38
2023-01-29T06:22:02.406Z,1024.39
2023-01-29T06:23:02.376Z,1024.34
2023-01-29T06:24:02.409Z,1024.35
2023-01-29T06:25:02.385Z,1024.34
2023-01-29T06:26:02.372Z,1024.28
2023-01-29T06:27:02.348Z,1024.21
2023-01-29T06:28:02.330Z,1024.12
2023-01-29T06:29:09.367Z,1024.09
2023-01-29T06:30:08.640Z,1024.03
2023-01-29T06:31:24.352Z,1024.01
2023-01-29T06:32:02.612Z,1024.01
2023-01-29T06:33:02.279Z,1023.92
2023-01-29T06:34:02.579Z,1023.97
2023-01-29T06:35:02.251Z,1023.92
2023-01-29T06:36:02.222Z,1023.94
2023-01-29T06:37:02.274Z,1023.96
2023-01-29T06:38:02.226Z,1023.94
2023-01-29T06:39:02.197Z,1023.91
2023-01-29T06:40:02.234Z,1023.91
2023-01-29T06:41:02.177Z,1023.95
2023-01-29T06:42:02.167Z,1023.95
2023-01-29T06:43:02.187Z,1023.90
2023-01-29T06:44:02.129Z,1023.88
2023-01-29T06:45:02.203Z,1023.86
2023-01-29T06:46:02.126Z,1023.89
2023-01-29T06:47:02.172Z,1023.86
2023-01-29T06:48:02.084Z,1023.96
2023-01-29T06:49:02.117Z,1023.91
2023-01-29T06:50:02.227Z,1024.02
2023-01-29T06:51:02.083Z,1024.02
2023-01-29T06:52:02.897Z,1024.02
2023-01-29T06:53:02.047Z,1024.07
2023-01-29T06:54:02.129Z,1024.13
2023-01-29T06:55:02.056Z,1024.08
2023-01-29T06:56:02.060Z,1024.12
2023-01-29T06:57:02.129Z,1024.15
2023-01-29T06:58:02.074Z,1024.13
2023-01-29T06:59:02.022Z,1024.24
2023-01-29T07:00:02.146Z,1024.25
2023-01-29T07:01:02.147Z,1024.26
2023-01-29T07:02:02.047Z,1024.25
2023-01-29T07:03:01.971Z,1024.21
2023-01-29T07:04:01.958Z,1024.25
2023-01-29T07:05:01.934Z,1024.19
2023-01-29T07:06:01.898Z,1024.16
2023-01-29T07:07:01.892Z,1024.18
2023-01-29T07:08:01.886Z,1024.11
2023-01-29T07:09:01.877Z,1024.09
2023-01-29T07:10:01.933Z,1024.10
2023-01-29T07:11:01.892Z,1024.10
2023-01-29T07:12:01.890Z,1024.18
2023-01-29T07:13:01.865Z,1024.13
2023-01-29T07:14:01.893Z,1024.15
2023-01-29T07:15:02.419Z,1024.20
2023-01-29T07:16:01.839Z,1024.23
2023-01-29T07:17:01.821Z,1024.22
2023-01-29T07:18:01.766Z,1024.13
2023-01-29T07:19:01.839Z,1024.06
2023-01-29T07:20:01.745Z,1024.13
2023-01-29T07:21:01.807Z,1024.01
2023-01-29T07:22:01.703Z,1024.00
2023-01-29T07:23:01.819Z,1024.00
2023-01-29T07:24:01.791Z,1024.08
2023-01-29T07:25:01.728Z,1024.03
2023-01-29T07:26:01.655Z,1024.07
2023-01-29T07:27:01.667Z,1024.11
2023-01-29T07:28:01.691Z,1024.07
2023-01-29T07:29:01.653Z,1024.10
2023-01-29T07:30:01.625Z,1024.07
2023-01-29T07:31:01.675Z,1024.14
2023-01-29T07:32:01.745Z,1024.17
2023-01-29T07:33:01.644Z,1024.12
2023-01-29T07:34:01.558Z,1024.03
2023-01-29T07:35:01.620Z,1024.04
2023-01-29T07:36:01.614Z,1024.01
2023-01-29T07:37:01.610Z,1023.92
2023-01-29T07:38:01.521Z,1023.93
2023-01-29T07:39:01.574Z,1023.99
2023-01-29T07:40:01.516Z,1023.95
2023-01-29T07:41:03.160Z,1023.95
2023-01-29T07:42:01.471Z,1023.92
2023-01-29T07:43:01.564Z,1023.95
2023-01-29T07:44:01.540Z,1023.98
2023-01-29T07:45:01.482Z,1024.03
2023-01-29T07:46:01.535Z,1023.91
2023-01-29T07:47:01.504Z,1023.86
2023-01-29T07:48:01.418Z,1023.92
2023-01-29T07:49:01.451Z,1024.01
2023-01-29T07:50:01.400Z,1023.92
2023-01-29T07:51:01.430Z,1023.97
2023-01-29T07:52:02.124Z,1023.93
2023-01-29T07:53:01.417Z,1023.96
2023-01-29T07:54:01.519Z,1023.93
2023-01-29T07:55:01.431Z,1023.91
2023-01-29T07:56:01.399Z,1023.90
2023-01-29T07:57:01.339Z,1023.83
2023-01-29T07:58:01.353Z,1023.84
2023-01-29T07:59:01.420Z,1023.85
2023-01-29T08:00:01.329Z,1023.90
2023-01-29T08:01:01.330Z,1023.85
2023-01-29T08:02:01.335Z,1023.80
2023-01-29T08:03:01.269Z,1023.89
2023-01-29T08:04:01.280Z,1023.84
2023-01-29T08:05:01.925Z,1023.81
2023-01-29T08:06:01.230Z,1023.89
2023-01-29T08:07:01.240Z,1023.86
2023-01-29T08:08:06.848Z,1023.81
2023-01-29T08:09:01.292Z,1023.85
2023-01-29T08:10:01.161Z,1023.87
2023-01-29T08:11:01.295Z,1023.85
2023-01-29T08:12:01.195Z,1023.85
2023-01-29T08:13:01.778Z,1023.79
2023-01-29T08:14:01.171Z,1023.84
2023-01-29T08:15:01.317Z,1023.79
2023-01-29T08:16:01.147Z,1023.72
2023-01-29T08:17:01.163Z,1023.74
2023-01-29T08:18:01.076Z,1023.67
2023-01-29T08:19:01.114Z,1023.57
2023-01-29T08:20:01.124Z,1023.65
2023-01-29T08:21:01.219Z,1023.63
2023-01-29T08:22:01.044Z,1023.65
2023-01-29T08:23:01.038Z,1023.65
2023-01-29T08:25:08.337Z,1023.58
2023-01-29T08:26:01.104Z,1023.56
2023-01-29T08:27:00.991Z,1023.59
2023-01-29T08:28:00.982Z,1023.57
2023-01-29T08:29:01.110Z,1023.59
2023-01-29T08:30:01.045Z,1023.58
2023-01-29T08:31:01.110Z,1023.62
2023-01-29T08:32:01.243Z,1023.52
2023-01-29T08:33:01.017Z,1023.49
2023-01-29T08:34:02.788Z,1023.51
2023-01-29T08:35:01.108Z,1023.53
2023-01-29T08:36:00.972Z,1023.55
2023-01-29T08:37:01.010Z,1023.56
2023-01-29T08:38:01.013Z,1023.51
2023-01-29T08:39:01.059Z,1023.49
2023-01-29T08:40:01.119Z,1023.59
2023-01-29T08:41:01.337Z,1023.52
2023-01-29T08:42:01.380Z,1023.54
2023-01-29T08:43:02.266Z,1023.50
2023-01-29T08:44:00.938Z,1023.50
2023-01-29T08:45:00.954Z,1023.50
2023-01-29T08:46:01.598Z,1023.39
2023-01-29T08:47:00.939Z,1023.45
2023-01-29T08:48:00.763Z,1023.47
2023-01-29T08:49:00.744Z,1023.46
2023-01-29T08:50:00.738Z,1023.47
2023-01-29T08:51:00.723Z,1023.47
2023-01-29T08:52:02.977Z,1023.53
2023-01-29T08:53:00.724Z,1023.56
2023-01-29T08:54:00.855Z,1023.47
2023-01-29T08:55:00.752Z,1023.48
2023-01-29T08:56:00.737Z,1023.50
2023-01-29T08:57:00.655Z,1023.51
2023-01-29T08:58:00.794Z,1023.40
2023-01-29T08:59:00.623Z,1023.48
2023-01-29T09:00:00.753Z,1023.37
2023-01-29T09:01:00.703Z,1023.46
2023-01-29T09:02:00.619Z,1023.48
2023-01-29T09:03:00.662Z,1023.45
2023-01-29T09:04:00.602Z,1023.48
2023-01-29T09:05:00.595Z,1023.42
2023-01-29T09:06:00.610Z,1023.44
2023-01-29T09:07:00.575Z,1023.52
2023-01-29T09:08:00.528Z,1023.50
2023-01-29T09:09:00.542Z,1023.47
2023-01-29T09:10:00.494Z,1023.35
2023-01-29T09:11:00.609Z,1023.34
2023-01-29T09:12:00.510Z,1023.42
2023-01-29T09:13:00.577Z,1023.33
2023-01-29T09:14:00.463Z,1023.30
2023-01-29T09:15:00.441Z,1023.32
2023-01-29T09:16:00.444Z,1023.20
2023-01-29T09:17:00.470Z,1023.27
2023-01-29T09:18:00.396Z,1023.28
2023-01-29T09:19:00.419Z,1023.26
2023-01-29T09:20:00.461Z,1023.22
2023-01-29T09:21:00.456Z,1023.21
2023-01-29T09:22:00.374Z,1023.23
2023-01-29T09:23:00.412Z,1023.23
2023-01-29T09:24:00.448Z,1023.27
2023-01-29T09:25:00.365Z,1023.27
2023-01-29T09:26:00.360Z,1023.30
2023-01-29T09:27:00.412Z,1023.23
2023-01-29T09:28:00.345Z,1023.19
2023-01-29T09:29:00.344Z,1023.21
2023-01-29T09:30:00.281Z,1023.19
2023-01-29T09:31:00.470Z,1023.16
2023-01-29T09:32:00.387Z,1023.18
2023-01-29T09:33:00.255Z,1023.26
2023-01-29T09:34:00.262Z,1023.21
2023-01-29T09:35:00.244Z,1023.17
2023-01-29T09:36:00.224Z,1023.17
2023-01-29T09:37:00.284Z,1023.09
2023-01-29T09:38:00.947Z,1023.20
2023-01-29T09:39:00.183Z,1023.21
2023-01-29T09:40:00.203Z,1023.20
2023-01-29T09:41:00.183Z,1023.22
2023-01-29T09:42:00.145Z,1023.25
2023-01-29T09:43:00.145Z,1023.21
2023-01-29T09:44:00.135Z,1023.21
2023-01-29T09:45:00.146Z,1023.16
2023-01-29T09:46:00.164Z,1023.20
2023-01-29T09:47:00.173Z,1023.17
2023-01-29T09:48:00.182Z,1023.12
2023-01-29T09:49:00.128Z,1023.17
2023-01-29T09:50:00.110Z,1023.00
2023-01-29T09:51:00.109Z,1023.12
2023-01-29T09:52:00.103Z,1023.06
2023-01-29T09:53:00.025Z,1023.15
2023-01-29T09:54:00.126Z,1023.06
2023-01-29T09:54:59.995Z,1023.07
2023-01-29T09:56:00.003Z,1023.04
2023-01-29T09:57:00.177Z,1023.03
2023-01-29T09:57:59.956Z,1023.01
2023-01-29T09:59:01.685Z,1023.10
2023-01-29T09:59:59.926Z,1023.00
2023-01-29T10:00:59.942Z,1023.02
2023-01-29T10:02:00.050Z,1022.97
2023-01-29T10:02:59.966Z,1023.02
2023-01-29T10:03:59.936Z,1023.01
2023-01-29T10:04:59.886Z,1023.01
2023-01-29T10:05:59.883Z,1022.93
2023-01-29T10:06:59.861Z,1022.88
2023-01-29T10:07:59.916Z,1022.86
2023-01-29T10:08:59.851Z,1022.86
2023-01-29T10:09:59.795Z,1022.79
2023-01-29T10:10:59.823Z,1022.74
2023-01-29T10:11:59.835Z,1022.83
2023-01-29T10:12:59.805Z,1022.78
2023-01-29T10:13:59.773Z,1022.75
2023-01-29T10:14:59.781Z,1022.79
2023-01-29T10:15:59.742Z,1022.79
2023-01-29T10:16:59.888Z,1022.72
2023-01-29T10:17:59.739Z,1022.71
2023-01-29T10:18:59.703Z,1022.66
2023-01-29T10:19:59.709Z,1022.65
2023-01-29T10:20:59.698Z,1022.65
2023-01-29T10:21:59.749Z,1022.71
2023-01-29T10:22:59.716Z,1022.66
2023-01-29T10:23:59.703Z,1022.67
2023-01-29T10:24:59.888Z,1022.60
2023-01-29T10:25:59.651Z,1022.65
2023-01-29T10:26:59.634Z,1022.56
2023-01-29T10:27:59.631Z,1022.57
2023-01-29T10:28:59.652Z,1022.57
2023-01-29T10:29:59.648Z,1022.48
2023-01-29T10:30:59.651Z,1022.59
2023-01-29T10:31:59.824Z,1022.52
2023-01-29T10:32:59.566Z,1022.58
2023-01-29T10:34:02.501Z,1022.54
2023-01-29T10:34:59.554Z,1022.54
2023-01-29T10:35:59.535Z,1022.49
2023-01-29T10:36:59.548Z,1022.47
2023-01-29T10:37:59.522Z,1022.43
2023-01-29T10:38:59.727Z,1022.45
2023-01-29T10:40:02.420Z,1022.48
2023-01-29T10:41:00.469Z,1022.40
2023-01-29T10:41:59.503Z,1022.39
2023-01-29T10:42:59.489Z,1022.41
2023-01-29T10:43:59.470Z,1022.44
2023-01-29T10:44:59.446Z,1022.35
2023-01-29T10:45:59.443Z,1022.38
2023-01-29T10:46:59.462Z,1022.36
2023-01-29T10:47:59.449Z,1022.35
2023-01-29T10:48:59.445Z,1022.34
2023-01-29T10:49:59.394Z,1022.36
2023-01-29T10:50:59.396Z,1022.18
2023-01-29T10:51:59.360Z,1022.34
2023-01-29T10:53:01.926Z,1022.17
2023-01-29T10:53:59.341Z,1022.13
2023-01-29T10:54:59.557Z,1022.10
2023-01-29T10:55:59.872Z,1022.10
2023-01-29T10:56:59.299Z,1022.16
2023-01-29T10:57:59.403Z,1022.12
2023-01-29T10:58:59.266Z,1022.06
2023-01-29T10:59:59.308Z,1022.12
2023-01-29T11:00:59.390Z,1021.96
2023-01-29T11:01:59.387Z,1022.03
2023-01-29T11:02:59.646Z,1022.03
2023-01-29T11:03:59.268Z,1021.90
2023-01-29T11:04:59.263Z,1021.96
2023-01-29T11:05:59.308Z,1021.96
2023-01-29T11:06:59.290Z,1021.96
2023-01-29T11:07:59.207Z,1021.90
2023-01-29T11:08:59.177Z,1021.95
2023-01-29T11:09:59.441Z,1021.93
2023-01-29T11:10:59.133Z,1021.98
2023-01-29T11:11:59.136Z,1021.87
2023-01-29T11:12:59.138Z,1021.87
2023-01-29T11:14:00.164Z,1021.89
2023-01-29T11:14:59.205Z,1021.86
2023-01-29T11:15:59.156Z,1021.82
2023-01-29T11:16:59.195Z,1021.77
2023-01-29T11:17:59.091Z,1021.78
2023-01-29T11:18:59.092Z,1021.82
2023-01-29T11:19:59.108Z,1021.67
2023-01-29T11:20:59.021Z,1021.81
2023-01-29T11:21:59.158Z,1021.76
2023-01-29T11:22:59.022Z,1021.60
2023-01-29T11:23:58.999Z,1021.65
2023-01-29T11:24:59.913Z,1021.65
2023-01-29T11:25:59.003Z,1021.63
2023-01-29T11:26:58.998Z,1021.62
2023-01-29T11:27:59.879Z,1021.66
2023-01-29T11:28:59.007Z,1021.73
2023-01-29T11:29:58.949Z,1021.60
2023-01-29T11:30:59.074Z,1021.59
2023-01-29T11:31:59.239Z,1021.65
2023-01-29T11:32:58.989Z,1021.74
2023-01-29T11:33:59.191Z,1021.61
2023-01-29T11:34:59.866Z,1021.59
2023-01-29T11:35:59.076Z,1021.58
2023-01-29T11:36:58.931Z,1021.51
2023-01-29T11:37:59.122Z,1021.61
2023-01-29T11:39:00.468Z,1021.58
2023-01-29T11:39:59.128Z,1021.50
2023-01-29T11:45:32.953Z,1021.45
2023-01-29T11:46:33.978Z,1021.44
2023-01-29T11:47:33.591Z,1021.52
2023-01-29T11:51:10.533Z,1021.46
2023-01-29T11:52:12.294Z,1021.36
2023-01-29T11:53:11.212Z,1021.34
2023-01-29T11:54:11.256Z,1021.36
2023-01-29T11:55:11.306Z,1021.37
2023-01-29T12:05:07.246Z,1021.18
2023-01-29T12:06:08.368Z,1021.17
2023-01-29T12:07:08.247Z,1021.20
2023-01-29T12:08:09.947Z,1021.10
2023-01-29T12:09:08.210Z,1021.04
2023-01-29T12:14:30.396Z,1021.10
2023-01-29T12:34:06.814Z,1020.72
2023-01-29T14:20:06.006Z,1019.04
2023-01-29T14:21:06.387Z,1018.95
2023-01-29T14:22:06.432Z,1018.86
2023-01-29T14:23:06.374Z,1018.98
2023-01-29T14:24:06.527Z,1018.79
2023-01-29T14:25:06.420Z,1018.82
2023-01-29T14:26:06.417Z,1018.84
2023-01-29T14:27:06.316Z,1018.82
2023-01-29T14:28:06.825Z,1018.80
2023-01-29T14:29:06.320Z,1018.79
2023-01-29T14:30:06.375Z,1018.76